Time;durP1;ratioP1;P1;durP2;ratioP2;P2;SDS_P1;SDS_P2;PMS_P1;PMS_P2;Temp;Humidity;BMP_temperature;BMP_pressure;BME280_temperature;BME280_humidity;BME280_pressure;Samples;Min_cycle;Max_cycle;Signal;HPM_P1;HPM_P2
2022/09/11 00:01:35;;;;;;;2.13;1.13;;;22.20;60.70;;;;;;5071004;28;20637;-69
2022/09/11 00:04:03;;;;;;;1.90;0.90;;;22.30;55.80;;;;;;5061797;28;20270;-70
2022/09/11 00:06:31;;;;;;;2.20;1.07;;;22.20;58.50;;;;;;5061331;28;20223;-70
2022/09/11 00:09:04;;;;;;;3.10;0.90;;;22.00;57.60;;;;;;5059187;28;20195;-69
2022/09/11 00:11:35;;;;;;;5.70;1.10;;;22.20;56.20;;;;;;5059935;28;20196;-72
2022/09/11 00:14:02;;;;;;;3.23;0.70;;;22.10;56.90;;;;;;5061609;28;20655;-70
2022/09/11 00:16:40;;;;;;;3.63;1.07;;;22.20;55.80;;;;;;5062700;28;20187;-71
2022/09/11 00:19:13;;;;;;;2.70;0.70;;;22.20;55.70;;;;;;5061108;28;20522;-69
2022/09/11 00:21:40;;;;;;;1.63;0.90;;;21.90;58.70;;;;;;5070076;28;20182;-71
2022/09/11 00:24:09;;;;;;;4.40;0.83;;;22.40;59.90;;;;;;5065235;28;20232;-71
2022/09/11 00:26:37;;;;;;;2.07;0.80;;;22.40;53.60;;;;;;5084152;28;20230;-70
2022/09/11 00:29:05;;;;;;;3.87;1.00;;;22.00;55.60;;;;;;5073608;28;20183;-71
2022/09/11 00:31:33;;;;;;;2.70;1.00;;;22.00;55.80;;;;;;5063410;28;20185;-70
2022/09/11 00:34:00;;;;;;;3.20;1.00;;;22.30;56.20;;;;;;5074496;28;20179;-70
2022/09/11 00:36:34;;;;;;;2.80;0.83;;;22.90;51.30;;;;;;5074332;28;20680;-69
2022/09/11 00:39:02;;;;;;;1.93;0.87;;;23.70;54.00;;;;;;5073678;28;20192;-71
2022/09/11 00:41:34;;;;;;;1.27;0.63;;;23.60;44.10;;;;;;5072776;28;20223;-71
2022/09/11 00:44:25;;;;;;;2.97;0.93;;;22.60;44.50;;;;;;5073771;28;20187;-70
2022/09/11 00:46:56;;;;;;;2.63;0.80;;;22.90;43.90;;;;;;5039714;28;20233;-71
2022/09/11 00:49:23;;;;;;;1.40;0.70;;;23.30;42.10;;;;;;5073524;28;20192;-71
2022/09/11 00:51:56;;;;;;;2.27;0.60;;;23.20;44.40;;;;;;5072345;28;20593;-72
2022/09/11 00:54:34;;;;;;;1.70;0.60;;;23.60;41.40;;;;;;5074226;28;20209;-72
2022/09/11 00:57:05;;;;;;;5.23;0.90;;;23.10;40.30;;;;;;5073735;28;20188;-69
2022/09/11 00:59:33;;;;;;;1.73;0.73;;;23.50;43.80;;;;;;5074028;28;20179;-70
2022/09/11 01:02:01;;;;;;;2.87;0.67;;;24.30;43.60;;;;;;5073660;28;20217;-72
2022/09/11 01:04:29;;;;;;;2.27;0.73;;;24.40;39.20;;;;;;5074141;28;20179;-71
2022/09/11 01:06:59;;;;;;;2.83;0.90;;;24.80;40.00;;;;;;5072377;28;20591;-70
2022/09/11 01:09:29;;;;;;;1.57;0.60;;;24.70;38.80;;;;;;5073676;28;20222;-70
2022/09/11 01:12:25;;;;;;;1.80;0.77;;;24.70;37.70;;;;;;5073331;28;20188;-69
2022/09/11 01:15:04;;;;;;;3.30;0.90;;;24.40;36.90;;;;;;5048920;28;20235;-70
2022/09/11 01:18:12;;;;;;;1.03;0.60;;;24.80;37.40;;;;;;5073757;28;20243;-73
2022/09/11 01:20:48;;;;;;;2.17;0.87;;;25.10;36.70;;;;;;5073310;28;20248;-70
2022/09/11 01:23:33;;;;;;;1.73;0.80;;;25.10;34.00;;;;;;5072847;28;20302;-69
2022/09/11 01:26:35;;;;;;;5.23;0.97;;;24.90;34.80;;;;;;5073232;28;20215;-69
2022/09/11 01:29:38;;;;;;;2.77;1.10;;;24.80;33.30;;;;;;5073042;28;20187;-70
2022/09/11 01:32:24;;;;;;;2.30;0.83;;;24.20;31.00;;;;;;5059505;28;20203;-71
2022/09/11 01:35:23;;;;;;;1.47;0.70;;;23.50;32.50;;;;;;5061674;28;20183;-70
2022/09/11 01:38:00;;;;;;;2.73;1.10;;;23.60;33.20;;;;;;5072647;28;20214;-70
2022/09/11 01:40:40;;;;;;;2.03;0.80;;;24.10;34.80;;;;;;5064775;28;20194;-70
2022/09/11 01:43:12;;;;;;;2.77;0.83;;;24.40;33.80;;;;;;5072720;28;20642;-70
2022/09/11 01:45:43;;;;;;;2.07;0.67;;;25.00;32.50;;;;;;5058644;28;20212;-68
2022/09/11 01:48:15;;;;;;;2.07;1.03;;;24.50;31.80;;;;;;5073109;28;20506;-68
2022/09/11 01:50:47;;;;;;;3.23;1.23;;;24.90;34.10;;;;;;5073032;28;20194;-69
2022/09/11 01:53:20;;;;;;;3.10;0.80;;;24.50;33.60;;;;;;5072901;28;20180;-69
2022/09/11 01:56:11;;;;;;;2.43;0.90;;;24.70;32.70;;;;;;5072878;28;20188;-72
2022/09/11 01:58:42;;;;;;;1.53;0.90;;;25.00;33.10;;;;;;5069913;28;20180;-68
2022/09/11 02:01:23;;;;;;;4.73;1.30;;;25.50;30.80;;;;;;5072679;28;20263;-68
2022/09/11 02:04:06;;;;;;;2.70;0.80;;;25.00;58.10;;;;;;5051578;28;20565;-69
2022/09/11 02:06:55;;;;;;;5.10;0.87;;;24.60;53.70;;;;;;5066306;28;20230;-69
2022/09/11 02:09:26;;;;;;;1.93;0.70;;;24.40;56.80;;;;;;5072567;28;20172;-69
2022/09/11 02:11:57;;;;;;;4.10;1.00;;;24.00;55.90;;;;;;5072723;28;20188;-71
2022/09/11 02:14:41;;;;;;;2.60;1.00;;;24.60;59.00;;;;;;5055215;28;20216;-70
2022/09/11 02:17:27;;;;;;;1.73;0.80;;;24.90;59.20;;;;;;5072308;28;20183;-69
2022/09/11 02:19:58;;;;;;;1.67;0.87;;;25.20;58.80;;;;;;5072507;28;20272;-69
2022/09/11 02:22:26;;;;;;;3.77;0.90;;;25.10;55.10;;;;;;5071127;28;20380;-69
2022/09/11 02:24:57;;;;;;;1.77;1.00;;;24.80;56.40;;;;;;5070420;28;20195;-73
2022/09/11 02:27:27;;;;;;;3.10;0.97;;;24.70;61.10;;;;;;5072385;28;20190;-72
2022/09/11 02:29:56;;;;;;;6.37;0.80;;;24.60;54.70;;;;;;5072424;28;20168;-69
2022/09/11 02:32:25;;;;;;;2.67;0.80;;;24.40;56.20;;;;;;5072247;28;20751;-69
2022/09/11 02:34:57;;;;;;;5.20;1.10;;;24.50;55.80;;;;;;5071081;28;20207;-69
2022/09/11 02:37:45;;;;;;;1.50;0.90;;;24.80;57.70;;;;;;5072344;28;20250;-68
2022/09/11 02:40:43;;;;;;;3.77;1.10;;;24.70;54.40;;;;;;5061992;28;20209;-69
2022/09/11 02:43:34;;;;;;;1.97;0.80;;;24.50;55.50;;;;;;5072072;28;20175;-69
2022/09/11 02:46:23;;;;;;;5.20;0.90;;;25.20;53.50;;;;;;5071938;28;20248;-69
2022/09/11 02:49:25;;;;;;;4.80;0.87;;;24.90;57.30;;;;;;5072000;28;20539;-69
2022/09/11 02:51:58;;;;;;;2.03;0.80;;;24.60;53.40;;;;;;5063802;28;20221;-70
2022/09/11 02:55:00;;;;;;;2.27;0.90;;;24.70;54.50;;;;;;5072090;28;20205;-68
2022/09/11 02:57:33;;;;;;;3.03;0.87;;;24.80;53.30;;;;;;5072049;28;20244;-69
2022/09/11 03:00:05;;;;;;;1.13;0.50;;;24.20;54.70;;;;;;5071902;28;20203;-71
2022/09/11 03:02:38;;;;;;;2.53;0.93;;;24.10;57.30;;;;;;5072017;28;20176;-69
2022/09/11 03:05:07;;;;;;;3.30;0.80;;;24.30;51.90;;;;;;5071288;28;20210;-68
2022/09/11 03:07:34;;;;;;;3.00;1.00;;;24.60;51.30;;;;;;5071722;28;20261;-70
2022/09/11 03:10:02;;;;;;;2.40;1.07;;;24.60;50.00;;;;;;5071544;28;20180;-71
2022/09/11 03:12:29;;;;;;;1.57;0.70;;;24.60;51.70;;;;;;5070495;28;20183;-70
2022/09/11 03:14:57;;;;;;;3.37;1.00;;;24.70;50.90;;;;;;5071715;28;20206;-68
2022/09/11 03:17:25;;;;;;;1.50;0.77;;;24.90;52.70;;;;;;5071406;28;20563;-71
2022/09/11 03:19:52;;;;;;;4.23;0.90;;;25.00;48.50;;;;;;5071474;28;20229;-69
2022/09/11 03:22:19;;;;;;;1.57;0.80;;;25.00;49.30;;;;;;5071391;28;20184;-68
2022/09/11 03:24:47;;;;;;;2.23;0.70;;;24.80;46.90;;;;;;5067752;28;20365;-68
2022/09/11 03:27:16;;;;;;;1.50;0.80;;;24.70;46.00;;;;;;5063803;28;20301;-71
2022/09/11 03:29:43;;;;;;;2.47;1.10;;;24.90;49.40;;;;;;5072638;28;20190;-69
2022/09/11 03:32:11;;;;;;;2.40;0.73;;;25.00;49.00;;;;;;5074591;28;20203;-70
2022/09/11 03:34:38;;;;;;;3.83;1.00;;;24.40;50.80;;;;;;5071407;28;20179;-71
2022/09/11 03:37:06;;;;;;;1.73;0.70;;;24.90;49.30;;;;;;5071768;28;20916;-69
2022/09/11 03:39:33;;;;;;;2.20;0.90;;;24.90;47.30;;;;;;5071377;28;20735;-70
2022/09/11 03:42:01;;;;;;;3.13;0.63;;;24.90;44.50;;;;;;5071512;28;20621;-70
2022/09/11 03:44:32;;;;;;;3.23;0.87;;;24.80;47.20;;;;;;5071083;28;20195;-71
2022/09/11 03:46:59;;;;;;;1.17;0.73;;;25.00;46.90;;;;;;5071209;28;20207;-70
2022/09/11 03:49:27;;;;;;;6.73;0.80;;;25.10;48.10;;;;;;5071263;28;20633;-70
2022/09/11 03:51:55;;;;;;;2.27;0.83;;;25.30;48.90;;;;;;5069919;28;20192;-71
2022/09/11 03:54:23;;;;;;;2.33;0.90;;;25.20;44.30;;;;;;5071427;28;20699;-70
2022/09/11 03:56:52;;;;;;;2.00;0.83;;;25.50;46.50;;;;;;5073468;28;20187;-70
2022/09/11 03:59:20;;;;;;;2.47;0.80;;;25.70;45.10;;;;;;5075194;28;20180;-70
2022/09/11 04:01:49;;;;;;;1.20;0.63;;;25.30;46.40;;;;;;5075045;28;20186;-71
2022/09/11 04:04:16;;;;;;;3.37;0.70;;;25.00;42.50;;;;;;5073824;28;20184;-71
2022/09/11 04:06:44;;;;;;;3.27;1.00;;;24.60;44.70;;;;;;5074748;28;20705;-71
2022/09/11 04:09:12;;;;;;;1.10;0.70;;;24.60;44.30;;;;;;5074929;28;20232;-71
2022/09/11 04:11:39;;;;;;;2.30;1.00;;;24.70;49.90;;;;;;5073407;28;20199;-70
2022/09/11 04:14:10;;;;;;;3.93;0.90;;;24.80;47.60;;;;;;5074891;28;20280;-71
2022/09/11 04:16:40;;;;;;;0.73;0.47;;;24.60;45.00;;;;;;5074943;28;20316;-71
2022/09/11 04:19:09;;;;;;;1.07;0.53;;;24.50;46.40;;;;;;5074590;28;20180;-70
2022/09/11 04:21:38;;;;;;;1.30;0.60;;;24.60;46.40;;;;;;5074101;28;20191;-70
2022/09/11 04:24:07;;;;;;;0.87;0.70;;;24.20;43.30;;;;;;5074581;28;20233;-70
2022/09/11 04:26:34;;;;;;;3.53;0.90;;;24.00;46.30;;;;;;5073371;28;20215;-70
2022/09/11 04:29:02;;;;;;;2.37;0.70;;;24.20;44.40;;;;;;5074333;28;20191;-71
2022/09/11 04:31:29;;;;;;;1.77;0.60;;;24.60;42.80;;;;;;5074594;28;20180;-71
2022/09/11 04:33:58;;;;;;;3.57;0.80;;;24.50;39.00;;;;;;5074705;28;20179;-70
2022/09/11 04:36:25;;;;;;;3.53;0.97;;;24.30;42.50;;;;;;5073499;28;20191;-70
2022/09/11 04:38:59;;;;;;;2.00;0.93;;;23.90;40.80;;;;;;5074446;28;20291;-71
2022/09/11 04:41:27;;;;;;;3.60;0.80;;;23.60;44.50;;;;;;5074395;28;20608;-71
2022/09/11 04:43:59;;;;;;;1.70;0.80;;;23.90;49.90;;;;;;5074485;28;20179;-71
2022/09/11 04:46:27;;;;;;;4.87;1.10;;;23.90;49.50;;;;;;5065193;28;20219;-70
2022/09/11 04:49:07;;;;;;;6.73;2.73;;;23.90;42.90;;;;;;5056615;28;20183;-70
2022/09/11 04:51:39;;;;;;;1.50;0.73;;;23.70;42.80;;;;;;5074094;28;20274;-71
2022/09/11 04:54:07;;;;;;;3.63;0.83;;;23.80;45.00;;;;;;5074001;28;20179;-70
2022/09/11 04:56:37;;;;;;;5.80;0.80;;;24.00;43.80;;;;;;5073598;28;20186;-71
2022/09/11 04:59:08;;;;;;;1.27;0.80;;;24.10;43.90;;;;;;5074290;28;20208;-71
2022/09/11 05:01:36;;;;;;;1.77;0.70;;;23.70;43.00;;;;;;5073851;28;20249;-71
2022/09/11 05:04:04;;;;;;;2.00;0.90;;;23.50;42.30;;;;;;5065623;28;20550;-71
2022/09/11 05:06:31;;;;;;;3.70;0.80;;;23.30;43.50;;;;;;5072086;28;20219;-70
2022/09/11 05:09:04;;;;;;;2.40;0.97;;;23.20;43.00;;;;;;5062482;28;20182;-70
2022/09/11 05:11:32;;;;;;;1.80;0.60;;;23.20;44.50;;;;;;5073422;28;20202;-71
2022/09/11 05:14:02;;;;;;;2.40;1.00;;;23.10;42.50;;;;;;5073024;28;20276;-71
2022/09/11 05:16:33;;;;;;;1.13;0.53;;;23.00;44.10;;;;;;5053927;28;20176;-71
2022/09/11 05:19:02;;;;;;;3.57;0.93;;;22.80;44.30;;;;;;5052900;28;20203;-70
2022/09/11 05:21:32;;;;;;;1.67;1.00;;;22.80;44.60;;;;;;5072610;28;20184;-71
2022/09/11 05:24:00;;;;;;;1.47;0.70;;;23.00;46.90;;;;;;5052458;28;20281;-70
2022/09/11 05:26:33;;;;;;;1.87;0.80;;;23.00;48.00;;;;;;5053599;28;20262;-70
2022/09/11 05:29:03;;;;;;;2.33;0.87;;;23.00;47.20;;;;;;5068199;28;20723;-70
2022/09/11 05:31:33;;;;;;;2.70;1.07;;;23.10;50.10;;;;;;5073596;28;20515;-70
2022/09/11 05:34:02;;;;;;;2.10;0.80;;;23.20;53.50;;;;;;5073560;28;20170;-71
2022/09/11 05:36:34;;;;;;;2.33;0.70;;;23.00;48.10;;;;;;5073185;28;20225;-70
2022/09/11 05:39:02;;;;;;;1.40;0.60;;;22.80;50.30;;;;;;5073183;28;20168;-71
2022/09/11 05:41:30;;;;;;;1.50;0.70;;;22.80;53.00;;;;;;5073167;28;20619;-71
2022/09/11 05:43:58;;;;;;;5.70;1.17;;;22.80;52.80;;;;;;5071830;28;20180;-72
2022/09/11 05:46:26;;;;;;;2.53;0.77;;;22.90;48.30;;;;;;5072741;28;20229;-70
2022/09/11 05:48:53;;;;;;;3.17;0.90;;;23.00;50.00;;;;;;5070433;28;20216;-70
2022/09/11 05:51:21;;;;;;;1.73;0.90;;;23.00;56.30;;;;;;5059290;28;20269;-70
2022/09/11 05:53:53;;;;;;;2.73;1.00;;;22.90;43.70;;;;;;5060786;28;20206;-71
2022/09/11 05:56:23;;;;;;;4.80;1.00;;;22.80;42.70;;;;;;5063392;28;20676;-71
2022/09/11 05:58:51;;;;;;;3.90;1.00;;;22.90;46.00;;;;;;5061856;28;20175;-71
2022/09/11 06:01:23;;;;;;;2.50;1.57;;;23.00;48.40;;;;;;5060891;28;20181;-71
2022/09/11 06:03:51;;;;;;;3.90;1.10;;;23.10;49.40;;;;;;5057243;28;20187;-71
2022/09/11 06:06:21;;;;;;;2.70;1.00;;;23.00;49.20;;;;;;5067095;28;20233;-70
2022/09/11 06:08:50;;;;;;;3.93;1.00;;;22.70;51.70;;;;;;5071205;28;20672;-71
2022/09/11 06:11:19;;;;;;;2.10;1.10;;;22.70;51.70;;;;;;5072159;28;20523;-70
2022/09/11 06:13:47;;;;;;;2.83;1.10;;;22.70;51.10;;;;;;5072588;28;20169;-70
2022/09/11 06:16:17;;;;;;;3.43;1.03;;;22.40;52.50;;;;;;5072225;28;20187;-70
2022/09/11 06:18:49;;;;;;;3.13;0.80;;;22.10;52.70;;;;;;5072113;28;20534;-70
2022/09/11 06:21:19;;;;;;;2.57;0.80;;;22.20;53.80;;;;;;5072274;28;20268;-70
2022/09/11 06:23:47;;;;;;;1.77;1.00;;;22.20;53.10;;;;;;5072054;28;20222;-70
2022/09/11 06:26:17;;;;;;;1.97;0.80;;;22.30;56.10;;;;;;5072199;28;20220;-70
2022/09/11 06:28:46;;;;;;;4.83;1.20;;;22.20;54.70;;;;;;5071870;28;20244;-70
2022/09/11 06:31:16;;;;;;;1.43;0.80;;;22.20;53.70;;;;;;5071996;28;20184;-71
2022/09/11 06:33:43;;;;;;;2.33;1.00;;;22.20;56.00;;;;;;5071984;28;20251;-71
2022/09/11 06:36:13;;;;;;;1.70;0.93;;;22.20;55.50;;;;;;5072165;28;20258;-71
2022/09/11 06:38:41;;;;;;;1.57;0.80;;;22.20;57.10;;;;;;5072167;28;20258;-70
2022/09/11 06:41:12;;;;;;;3.40;0.90;;;22.10;54.00;;;;;;5070801;28;20180;-70
2022/09/11 06:43:40;;;;;;;2.33;0.90;;;22.10;57.20;;;;;;5070934;28;20681;-69
2022/09/11 06:46:13;;;;;;;4.50;1.43;;;22.10;60.40;;;;;;5071240;28;20272;-70
2022/09/11 06:48:43;;;;;;;1.77;0.97;;;22.20;63.20;;;;;;5060704;28;20191;-69
2022/09/11 06:51:12;;;;;;;1.37;0.80;;;22.10;59.10;;;;;;5052986;28;20736;-68
2022/09/11 06:53:40;;;;;;;5.20;1.20;;;22.10;57.40;;;;;;5071667;28;20190;-70
2022/09/11 06:56:11;;;;;;;1.93;0.90;;;22.10;57.70;;;;;;5071792;28;20272;-70
2022/09/11 06:58:39;;;;;;;2.17;1.00;;;22.20;58.40;;;;;;5051754;28;20633;-71
2022/09/11 07:01:10;;;;;;;4.93;1.33;;;22.10;56.00;;;;;;5051473;28;20189;-68
2022/09/11 07:03:42;;;;;;;3.13;1.20;;;22.10;56.70;;;;;;5051858;28;20198;-69
2022/09/11 07:06:16;;;;;;;2.70;1.10;;;21.90;58.00;;;;;;5057770;28;20210;-68
2022/09/11 07:08:44;;;;;;;2.97;1.10;;;21.60;60.70;;;;;;5071464;28;20214;-70
2022/09/11 07:11:11;;;;;;;2.33;1.30;;;21.40;66.60;;;;;;5069961;28;20183;-68
2022/09/11 07:13:39;;;;;;;2.53;0.90;;;21.20;58.90;;;;;;5071219;28;20187;-70
2022/09/11 07:16:08;;;;;;;2.63;1.00;;;21.00;61.20;;;;;;5071497;28;20186;-72
2022/09/11 07:18:44;;;;;;;4.30;1.30;;;20.80;69.10;;;;;;5071506;28;20990;-69
2022/09/11 07:21:18;;;;;;;3.50;1.30;;;20.60;70.40;;;;;;5071500;28;20536;-70
2022/09/11 07:23:49;;;;;;;3.30;1.30;;;20.50;74.00;;;;;;5071465;28;20380;-69
2022/09/11 07:26:17;;;;;;;2.40;1.40;;;20.30;82.40;;;;;;5070784;28;20285;-69
2022/09/11 07:28:47;;;;;;;1.83;1.30;;;20.20;82.20;;;;;;5071379;28;20213;-70
2022/09/11 07:31:17;;;;;;;5.70;2.13;;;20.00;78.30;;;;;;5070620;28;20272;-72
2022/09/11 07:33:49;;;;;;;5.60;1.80;;;19.90;90.10;;;;;;5071393;28;20230;-70
2022/09/11 07:36:22;;;;;;;4.60;2.03;;;19.70;94.10;;;;;;5071234;28;20176;-70
2022/09/11 07:38:51;;;;;;;3.47;1.50;;;19.60;97.50;;;;;;5070939;28;20242;-69
2022/09/11 07:41:20;;;;;;;2.83;1.57;;;19.40;99.90;;;;;;5071170;28;20219;-69
2022/09/11 07:43:51;;;;;;;4.20;1.80;;;19.20;99.90;;;;;;5071434;28;20224;-70
2022/09/11 07:46:18;;;;;;;4.13;1.67;;;19.00;99.90;;;;;;5071113;28;20203;-71
2022/09/11 07:48:46;;;;;;;4.00;1.47;;;18.80;99.90;;;;;;5071186;28;20282;-71
2022/09/11 07:51:17;;;;;;;4.07;1.30;;;18.70;99.90;;;;;;5070871;28;20195;-70
2022/09/11 07:53:47;;;;;;;4.77;1.40;;;18.80;99.90;;;;;;5071017;28;20258;-71
2022/09/11 07:56:22;;;;;;;9.97;1.20;;;18.90;99.90;;;;;;5071082;28;20184;-70
2022/09/11 07:58:51;;;;;;;2.27;1.30;;;18.90;99.90;;;;;;5071051;28;20183;-68
2022/09/11 08:01:21;;;;;;;2.10;1.20;;;18.80;99.90;;;;;;5050872;28;20591;-71
2022/09/11 08:03:55;;;;;;;1.90;1.00;;;18.80;99.90;;;;;;5062036;28;20183;-68
2022/09/11 08:06:23;;;;;;;3.57;1.43;;;18.60;99.90;;;;;;5070852;28;20234;-71
2022/09/11 08:08:59;;;;;;;2.47;1.20;;;18.60;99.90;;;;;;5071079;28;20532;-68
2022/09/11 08:11:30;;;;;;;3.30;1.40;;;18.50;99.90;;;;;;5070924;28;20210;-69
2022/09/11 08:13:57;;;;;;;5.53;1.50;;;18.30;99.90;;;;;;5069774;28;20220;-70
2022/09/11 08:16:27;;;;;;;3.67;1.60;;;18.30;99.90;;;;;;5069658;28;20275;-69
2022/09/11 08:18:54;;;;;;;3.93;1.60;;;18.10;99.90;;;;;;5070813;28;20275;-68
2022/09/11 08:21:23;;;;;;;5.50;1.27;;;18.00;99.90;;;;;;5069566;28;20263;-69
2022/09/11 08:23:50;;;;;;;2.17;0.90;;;18.00;99.90;;;;;;5070514;28;20258;-70
2022/09/11 08:26:20;;;;;;;2.20;1.00;;;17.90;99.90;;;;;;5070862;28;20216;-68
2022/09/11 08:28:49;;;;;;;2.10;0.97;;;17.80;99.90;;;;;;5071129;28;20211;-70
2022/09/11 08:31:19;;;;;;;3.40;1.20;;;17.70;99.90;;;;;;5069402;28;20521;-71
2022/09/11 08:33:48;;;;;;;4.17;1.13;;;17.70;99.90;;;;;;5069719;28;20263;-71
2022/09/11 08:36:15;;;;;;;4.07;1.07;;;17.60;99.90;;;;;;5070711;28;20187;-71
2022/09/11 08:38:44;;;;;;;1.77;1.10;;;17.50;99.90;;;;;;5071443;28;20176;-70
2022/09/11 08:41:23;;;;;;;5.00;1.17;;;17.40;99.90;;;;;;5072504;28;20307;-72
2022/09/11 08:44:10;;;;;;;2.03;1.23;;;17.30;99.90;;;;;;5075708;28;20693;-69
2022/09/11 08:46:44;;;;;;;4.63;1.40;;;17.20;99.90;;;;;;5074492;28;20285;-71
2022/09/11 08:49:18;;;;;;;2.30;1.27;;;17.00;99.90;;;;;;5075653;28;20176;-69
2022/09/11 08:51:48;;;;;;;2.43;1.30;;;16.90;99.90;;;;;;5075628;28;20187;-72
2022/09/11 08:54:26;;;;;;;5.60;1.17;;;16.80;99.90;;;;;;5075250;28;20552;-72
2022/09/11 08:57:21;;;;;;;4.13;1.50;;;16.70;99.90;;;;;;5075630;28;20209;-68
2022/09/11 09:00:13;;;;;;;3.13;1.50;;;16.60;99.90;;;;;;5048604;28;20228;-69
2022/09/11 09:03:09;;;;;;;2.47;1.50;;;16.50;99.90;;;;;;5056327;28;20211;-67
2022/09/11 09:05:49;;;;;;;3.43;1.70;;;16.40;99.90;;;;;;5055563;28;20231;-68
2022/09/11 09:08:40;;;;;;;6.20;1.80;;;16.30;99.90;;;;;;5055388;28;20529;-70
2022/09/11 09:11:18;;;;;;;1.83;1.53;;;16.20;99.90;;;;;;5057889;28;20176;-71
2022/09/11 09:14:05;;;;;;;4.23;1.70;;;16.10;99.90;;;;;;5074486;28;20552;-70
2022/09/11 09:17:08;;;;;;;3.43;2.20;;;16.00;99.90;;;;;;5075243;28;20187;-71
2022/09/11 09:19:41;;;;;;;4.53;1.77;;;15.80;99.90;;;;;;5043234;28;20653;-71
2022/09/11 09:22:38;;;;;;;4.77;2.00;;;15.80;99.90;;;;;;5075397;28;20168;-70
2022/09/11 09:25:12;;;;;;;3.93;1.60;;;15.60;99.90;;;;;;5074953;28;20542;-71
2022/09/11 09:27:46;;;;;;;2.87;1.90;;;15.60;99.90;;;;;;5075580;28;20180;-72
2022/09/11 09:30:26;;;;;;;2.87;1.70;;;15.50;99.90;;;;;;5075443;28;20178;-70
2022/09/11 09:33:03;;;;;;;4.57;1.83;;;15.30;99.90;;;;;;5074929;28;20278;-71
2022/09/11 09:35:42;;;;;;;4.20;1.77;;;15.30;99.90;;;;;;5074901;28;20696;-72
2022/09/11 09:38:22;;;;;;;5.13;1.73;;;15.20;99.90;;;;;;5073948;28;20209;-69
2022/09/11 09:41:28;;;;;;;3.53;1.73;;;15.10;99.90;;;;;;5073449;28;20198;-68
2022/09/11 09:44:04;;;;;;;2.80;1.40;;;15.00;99.90;;;;;;5069279;28;20217;-71
2022/09/11 09:46:49;;;;;;;5.03;1.33;;;14.90;99.90;;;;;;5063125;28;20668;-69
2022/09/11 09:49:36;;;;;;;3.40;1.47;;;14.80;99.90;;;;;;5074197;28;20196;-70
2022/09/11 09:52:21;;;;;;;2.73;1.63;;;14.70;99.90;;;;;;5074705;28;20175;-69
2022/09/11 09:55:13;;;;;;;3.13;1.60;;;14.50;99.90;;;;;;5073945;28;20182;-72
2022/09/11 09:57:42;;;;;;;4.60;1.40;;;14.40;99.90;;;;;;5074174;28;20636;-72
2022/09/11 10:00:10;;;;;;;2.97;1.60;;;14.20;99.90;;;;;;5074559;28;20564;-70
2022/09/11 10:03:04;;;;;;;5.30;1.90;;;14.20;99.90;;;;;;5074429;28;20183;-73
2022/09/11 10:05:43;;;;;;;2.90;1.57;;;14.10;99.90;;;;;;5074014;28;20218;-71
2022/09/11 10:08:33;;;;;;;5.53;1.47;;;14.00;99.90;;;;;;5074445;28;20182;-73
2022/09/11 10:11:12;;;;;;;4.33;2.00;;;14.00;99.90;;;;;;5074011;28;20215;-70
2022/09/11 10:13:51;;;;;;;3.70;2.10;;;14.10;99.90;;;;;;5074359;28;20232;-71
2022/09/11 10:16:27;;;;;;;6.43;1.77;;;14.20;99.90;;;;;;5074226;28;20178;-71
2022/09/11 10:18:55;;;;;;;3.13;1.90;;;14.30;99.90;;;;;;5073753;28;20227;-71
2022/09/11 10:21:25;;;;;;;3.97;1.30;;;14.50;99.90;;;;;;5074129;28;20195;-71
2022/09/11 10:23:56;;;;;;;2.90;1.50;;;14.70;99.90;;;;;;5073876;28;20660;-71
2022/09/11 10:26:54;;;;;;;2.90;1.50;;;14.80;99.90;;;;;;5073945;28;20275;-72
2022/09/11 10:29:24;;;;;;;4.30;1.40;;;14.90;99.90;;;;;;5069531;28;20239;-71
2022/09/11 10:31:54;;;;;;;3.20;1.40;;;14.90;99.90;;;;;;5073830;28;20184;-73
2022/09/11 10:34:24;;;;;;;4.53;1.50;;;14.80;99.90;;;;;;5073981;28;20221;-72
2022/09/11 10:36:59;;;;;;;1.77;1.27;;;14.80;99.90;;;;;;5073784;28;20171;-73
2022/09/11 10:39:32;;;;;;;2.63;1.27;;;14.60;99.90;;;;;;5073757;28;20229;-69
2022/09/11 10:42:12;;;;;;;4.50;1.90;;;14.50;99.90;;;;;;5073942;28;20181;-72
2022/09/11 10:44:43;;;;;;;3.73;1.83;;;14.30;99.90;;;;;;5074136;28;20242;-71
2022/09/11 10:47:21;;;;;;;3.20;1.93;;;14.10;99.90;;;;;;5073565;28;20298;-72
2022/09/11 10:49:49;;;;;;;6.53;2.13;;;14.00;99.90;;;;;;5070528;28;20676;-68
2022/09/11 10:52:21;;;;;;;3.87;1.57;;;14.00;99.90;;;;;;5066167;28;20640;-72
2022/09/11 10:55:04;;;;;;;3.93;1.60;;;14.10;99.90;;;;;;5074041;28;20252;-71
2022/09/11 10:57:39;;;;;;;5.53;1.70;;;14.10;99.90;;;;;;5064638;28;20182;-68
2022/09/11 11:00:17;;;;;;;3.37;1.80;;;14.10;99.90;;;;;;5053863;28;20181;-72
2022/09/11 11:02:51;;;;;;;8.00;2.60;;;14.10;99.90;;;;;;5053747;28;20186;-70
2022/09/11 11:05:26;;;;;;;5.87;2.30;;;14.10;99.90;;;;;;5052690;28;20211;-72
2022/09/11 11:08:10;;;;;;;4.80;1.73;;;14.10;99.90;;;;;;5053550;28;20715;-72
2022/09/11 11:10:57;;;;;;;4.03;2.03;;;14.00;99.90;;;;;;5053322;28;20175;-69
2022/09/11 11:13:53;;;;;;;4.77;1.73;;;14.00;99.90;;;;;;5053337;28;20649;-72
2022/09/11 11:16:50;;;;;;;4.37;1.67;;;13.90;99.90;;;;;;5053340;28;20181;-71
2022/09/11 11:19:33;;;;;;;5.27;1.50;;;13.90;99.90;;;;;;5053212;28;20264;-68
2022/09/11 11:22:37;;;;;;;8.27;1.80;;;13.90;99.90;;;;;;5053773;28;20167;-72
2022/09/11 11:25:36;;;;;;;10.27;1.50;;;14.00;99.90;;;;;;5052021;28;20197;-70
2022/09/11 11:28:06;;;;;;;4.23;1.30;;;13.90;99.90;;;;;;5053276;28;20579;-70
2022/09/11 11:30:49;;;;;;;3.93;1.27;;;13.90;99.90;;;;;;5053689;28;20182;-69
2022/09/11 11:33:32;;;;;;;3.17;1.10;;;13.90;99.90;;;;;;5053366;28;20633;-71
2022/09/11 11:36:14;;;;;;;4.23;1.10;;;13.90;99.90;;;;;;5053547;28;20233;-71
2022/09/11 11:39:05;;;;;;;4.20;1.20;;;13.90;99.90;;;;;;5053362;28;20184;-73
2022/09/11 11:41:43;;;;;;;5.10;1.10;;;13.80;99.90;;;;;;5053174;28;20178;-69
2022/09/11 11:44:29;;;;;;;2.70;1.40;;;13.70;99.90;;;;;;5053146;28;20639;-69
2022/09/11 11:47:01;;;;;;;4.27;1.50;;;13.70;99.90;;;;;;5058743;28;20673;-75
2022/09/11 11:49:37;;;;;;;5.57;1.10;;;13.70;99.90;;;;;;5072364;28;20206;-72
2022/09/11 11:52:26;;;;;;;4.90;1.30;;;13.70;99.90;;;;;;5073076;28;20189;-71
2022/09/11 11:55:17;;;;;;;2.23;1.23;;;13.60;99.90;;;;;;5070971;28;20266;-67
2022/09/11 11:58:08;;;;;;;2.60;1.30;;;13.60;99.90;;;;;;5061154;28;20181;-72
2022/09/11 12:00:41;;;;;;;5.13;1.27;;;13.50;99.90;;;;;;5053165;28;20170;-67
2022/09/11 12:03:35;;;;;;;8.37;1.20;;;13.40;99.90;;;;;;5053098;28;20175;-72
2022/09/11 12:06:03;;;;;;;4.90;1.37;;;13.30;99.90;;;;;;5052742;28;20293;-70
2022/09/11 12:08:31;;;;;;;3.90;1.40;;;13.20;99.90;;;;;;5070281;28;20614;-72
2022/09/11 12:11:06;;;;;;;2.23;1.43;;;13.30;99.90;;;;;;5072810;28;20224;-68
2022/09/11 12:13:41;;;;;;;4.73;1.20;;;13.30;99.90;;;;;;5072663;28;20623;-68
2022/09/11 12:16:11;;;;;;;2.97;1.00;;;13.20;99.90;;;;;;5072741;28;20173;-73
2022/09/11 12:18:40;;;;;;;4.43;1.37;;;13.20;99.90;;;;;;5076104;28;20175;-72
2022/09/11 12:21:33;;;;;;;8.70;1.40;;;13.10;99.90;;;;;;5076418;28;20548;-71
2022/09/11 12:24:03;;;;;;;2.27;0.90;;;13.10;99.90;;;;;;5069107;28;20692;-69
2022/09/11 12:26:33;;;;;;;3.90;1.07;;;13.10;99.90;;;;;;5076351;28;20291;-71
2022/09/11 12:29:17;;;;;;;5.90;1.33;;;13.00;99.90;;;;;;5077398;28;20177;-71
2022/09/11 12:31:51;;;;;;;4.97;1.47;;;13.00;99.90;;;;;;5077266;28;20677;-72
2022/09/11 12:34:47;;;;;;;3.27;1.30;;;13.00;99.90;;;;;;5076344;28;20181;-71
2022/09/11 12:37:32;;;;;;;4.97;1.20;;;12.90;99.90;;;;;;5075731;28;20179;-72
2022/09/11 12:40:17;;;;;;;3.20;1.67;;;12.80;99.90;;;;;;5076428;28;20545;-67
2022/09/11 12:42:57;;;;;;;2.73;1.30;;;12.80;99.90;;;;;;5075945;28;20181;-66
2022/09/11 12:45:33;;;;;;;8.10;1.47;;;12.90;99.90;;;;;;5076013;28;20201;-70
2022/09/11 12:48:37;;;;;;;2.80;1.30;;;12.80;99.90;;;;;;5075520;28;20191;-68
2022/09/11 12:51:15;;;;;;;4.37;1.00;;;12.80;99.90;;;;;;5066029;28;20553;-73
2022/09/11 12:53:46;;;;;;;5.40;1.23;;;12.70;99.90;;;;;;5075856;28;20213;-68
2022/09/11 12:56:20;;;;;;;2.97;1.10;;;12.50;99.90;;;;;;5075830;28;20183;-73
2022/09/11 12:58:54;;;;;;;2.63;1.10;;;12.50;99.90;;;;;;5055803;28;20718;-69
2022/09/11 13:01:44;;;;;;;4.23;1.10;;;12.40;99.90;;;;;;5054668;28;20182;-72
2022/09/11 13:04:12;;;;;;;4.17;1.33;;;12.30;99.90;;;;;;5055490;28;20664;-72
2022/09/11 13:06:39;;;;;;;6.13;1.10;;;12.20;99.90;;;;;;5056464;28;20241;-68
2022/09/11 13:09:16;;;;;;;6.73;1.80;;;12.00;99.90;;;;;;5076344;28;20707;-72
2022/09/11 13:11:47;;;;;;;6.97;1.20;;;12.00;99.90;;;;;;5075513;28;20701;-73
2022/09/11 13:14:31;;;;;;;4.80;1.00;;;12.00;99.90;;;;;;5076103;28;20170;-67
2022/09/11 13:17:04;;;;;;;4.13;1.07;;;12.00;99.90;;;;;;5074996;28;20188;-69
2022/09/11 13:19:36;;;;;;;2.73;1.10;;;12.00;99.90;;;;;;5075360;28;20175;-73
2022/09/11 13:22:24;;;;;;;2.10;0.90;;;12.00;99.90;;;;;;5075003;28;20181;-67
2022/09/11 13:25:03;;;;;;;5.80;1.30;;;12.00;99.90;;;;;;5075584;28;20200;-73
2022/09/11 13:27:31;;;;;;;2.73;1.20;;;12.00;99.90;;;;;;5075100;28;20192;-72